Time;durP1;ratioP1;P1;durP2;ratioP2;P2;SDS_P1;SDS_P2;PMS_P1;PMS_P2;Temp;Humidity;BMP_temperature;BMP_pressure;BME280_temperature;BME280_humidity;BME280_pressure;Samples;Min_cycle;Max_cycle;Signal;HPM_P1;HPM_P2
2021/04/03 00:02:04;;;;;;;13.30;7.43;;;7.20;99.90;;;;;;5093433;28;20209;-65
2021/04/03 00:04:30;;;;;;;15.73;7.90;;;7.20;99.90;;;;;;5093503;28;20618;-65
2021/04/03 00:06:55;;;;;;;14.43;6.73;;;7.10;99.90;;;;;;5093685;28;20391;-65
2021/04/03 00:09:21;;;;;;;15.73;7.33;;;7.10;99.90;;;;;;5109096;28;20184;-65
2021/04/03 00:11:46;;;;;;;13.97;6.60;;;7.10;99.90;;;;;;5113505;28;20245;-65
2021/04/03 00:14:12;;;;;;;17.37;8.33;;;7.10;99.90;;;;;;5113564;28;20198;-65
2021/04/03 00:16:37;;;;;;;9.83;5.77;;;7.10;99.90;;;;;;5113489;28;20167;-65
2021/04/03 00:19:03;;;;;;;15.60;7.03;;;7.10;99.90;;;;;;5113129;28;20202;-65
2021/04/03 00:21:29;;;;;;;12.20;5.83;;;7.00;99.90;;;;;;5113345;28;20210;-65
2021/04/03 00:23:55;;;;;;;14.67;6.30;;;7.00;99.90;;;;;;5112408;28;20158;-65
2021/04/03 00:26:20;;;;;;;15.70;6.70;;;6.90;99.90;;;;;;5113486;28;20400;-65
2021/04/03 00:28:48;;;;;;;18.63;9.50;;;6.90;99.90;;;;;;5113155;28;20537;-65
2021/04/03 00:31:13;;;;;;;18.60;8.60;;;6.90;99.90;;;;;;5113262;28;20154;-65
2021/04/03 00:33:39;;;;;;;15.17;8.67;;;6.70;99.90;;;;;;5113168;28;20396;-65
2021/04/03 00:36:05;;;;;;;16.57;8.80;;;6.60;99.90;;;;;;5113249;28;20568;-65
2021/04/03 00:38:30;;;;;;;19.53;9.60;;;6.60;99.90;;;;;;5113183;28;20186;-65
2021/04/03 00:40:56;;;;;;;18.77;9.43;;;6.50;99.90;;;;;;5112669;28;20433;-65
2021/04/03 00:43:23;;;;;;;20.20;10.20;;;6.50;99.90;;;;;;5113108;28;20153;-65
2021/04/03 00:45:49;;;;;;;18.00;10.90;;;6.40;99.90;;;;;;5112092;28;20214;-65
2021/04/03 00:48:16;;;;;;;24.70;11.40;;;6.40;99.90;;;;;;5100678;28;20423;-65
2021/04/03 00:50:44;;;;;;;20.37;11.90;;;6.40;99.90;;;;;;5092650;28;20407;-65
2021/04/03 00:53:12;;;;;;;24.00;11.57;;;6.30;99.90;;;;;;5092832;28;20445;-65
2021/04/03 00:55:38;;;;;;;18.67;12.07;;;6.30;99.90;;;;;;5093062;28;20892;-65
2021/04/03 00:58:05;;;;;;;22.53;12.20;;;6.30;99.90;;;;;;5093334;28;20448;-65
2021/04/03 01:00:31;;;;;;;19.67;12.93;;;6.30;99.90;;;;;;5094150;28;20886;-65
2021/04/03 01:02:57;;;;;;;18.83;10.40;;;6.30;99.90;;;;;;5096560;28;20389;-65
2021/04/03 01:05:24;;;;;;;16.37;10.10;;;6.30;99.90;;;;;;5096838;28;20166;-65
2021/04/03 01:07:50;;;;;;;20.77;9.67;;;6.30;99.90;;;;;;5096797;28;20754;-65
2021/04/03 01:10:18;;;;;;;19.73;10.57;;;6.30;99.90;;;;;;5095359;28;20400;-65
2021/04/03 01:13:24;;;;;;;21.37;10.60;;;6.30;99.90;;;;;;5096695;28;20155;-65
2021/04/03 01:16:14;;;;;;;28.60;11.90;;;6.20;99.90;;;;;;5095789;28;20765;-65
2021/04/03 01:19:05;;;;;;;22.30;9.20;;;6.20;99.90;;;;;;5095152;28;20558;-65
2021/04/03 01:22:11;;;;;;;20.20;9.90;;;6.20;99.90;;;;;;5095561;28;20390;-65
2021/04/03 01:25:16;;;;;;;20.60;9.83;;;6.20;99.90;;;;;;5095146;28;20395;-65
2021/04/03 01:28:21;;;;;;;29.27;10.17;;;6.20;99.90;;;;;;5095096;28;20937;-65
2021/04/03 01:30:49;;;;;;;14.03;8.90;;;6.20;99.90;;;;;;5095065;28;20480;-65
2021/04/03 01:33:19;;;;;;;19.67;8.07;;;6.10;99.90;;;;;;5095451;28;20448;-65
2021/04/03 01:35:52;;;;;;;27.10;9.50;;;6.10;99.90;;;;;;5095963;28;20893;-65
2021/04/03 01:41:06;;;;;;;22.50;7.70;;;6.10;99.90;;;;;;5110819;27;20507;-65
2021/04/03 01:43:41;;;;;;;15.63;7.53;;;6.10;99.90;;;;;;5110854;28;20396;-65
2021/04/03 01:46:07;;;;;;;19.27;7.80;;;6.10;99.90;;;;;;5110720;28;20411;-65
2021/04/03 01:48:35;;;;;;;16.57;7.77;;;6.20;99.90;;;;;;5095771;28;20436;-65
2021/04/03 01:51:01;;;;;;;18.80;7.07;;;6.10;99.90;;;;;;5108905;28;20399;-65
2021/04/03 01:53:28;;;;;;;14.73;6.07;;;6.10;99.90;;;;;;5110966;28;20386;-65
2021/04/03 01:55:56;;;;;;;21.93;7.23;;;6.00;99.90;;;;;;5110593;28;20425;-65
2021/04/03 01:58:23;;;;;;;13.40;6.50;;;6.00;99.90;;;;;;5109297;28;20418;-65
2021/04/03 02:00:49;;;;;;;17.00;7.50;;;6.00;99.90;;;;;;5110444;28;20449;-65
2021/04/03 02:03:15;;;;;;;23.87;6.60;;;6.00;99.90;;;;;;5110260;28;20394;-65
2021/04/03 02:05:41;;;;;;;17.30;5.70;;;6.00;99.90;;;;;;5110482;28;20396;-65
2021/04/03 02:08:08;;;;;;;13.07;5.43;;;6.00;99.90;;;;;;5109422;28;20432;-65
2021/04/03 02:10:35;;;;;;;12.30;5.27;;;6.00;99.90;;;;;;5110209;28;21014;-65
2021/04/03 02:13:03;;;;;;;12.40;5.60;;;6.10;99.90;;;;;;5110154;28;20487;-65
2021/04/03 02:15:30;;;;;;;20.50;5.30;;;6.10;99.90;;;;;;5109319;28;20414;-65
2021/04/03 02:17:56;;;;;;;17.30;6.80;;;6.10;99.90;;;;;;5110232;28;20902;-65
2021/04/03 02:20:24;;;;;;;13.47;5.30;;;6.10;99.90;;;;;;5110183;28;20451;-65
2021/04/03 02:22:50;;;;;;;22.80;5.20;;;6.10;99.90;;;;;;5109664;28;20391;-65
2021/04/03 02:25:16;;;;;;;16.13;6.40;;;6.00;99.90;;;;;;5108814;28;20911;-65
2021/04/03 02:27:43;;;;;;;18.17;5.43;;;6.10;99.90;;;;;;5108718;28;20894;-65
2021/04/03 02:30:15;;;;;;;9.63;4.57;;;6.10;99.90;;;;;;5110458;28;20408;-65
2021/04/03 02:32:43;;;;;;;19.33;6.23;;;6.10;99.90;;;;;;5109973;28;20436;-65
2021/04/03 02:35:09;;;;;;;15.37;6.07;;;6.10;99.90;;;;;;5108759;28;20451;-65
2021/04/03 02:37:35;;;;;;;12.23;5.20;;;6.00;99.90;;;;;;5109910;28;20392;-65
2021/04/03 02:40:02;;;;;;;16.00;5.57;;;6.00;99.90;;;;;;5107486;28;20519;-65
2021/04/03 02:42:28;;;;;;;20.20;4.70;;;6.00;99.90;;;;;;5109887;28;20480;-65
2021/04/03 02:45:02;;;;;;;14.93;4.93;;;6.00;99.90;;;;;;5109579;28;20792;-65
2021/04/03 02:47:42;;;;;;;13.47;4.40;;;6.00;99.90;;;;;;5103762;28;20430;-65
2021/04/03 02:50:15;;;;;;;19.13;4.17;;;6.00;99.90;;;;;;5089589;28;20824;-65
2021/04/03 02:52:43;;;;;;;9.00;4.47;;;6.00;99.90;;;;;;5074221;28;20400;-65
2021/04/03 02:55:09;;;;;;;12.97;4.80;;;6.00;99.90;;;;;;5074417;28;20414;-65
2021/04/03 02:57:37;;;;;;;14.90;4.93;;;6.00;99.90;;;;;;5076162;28;20433;-65
2021/04/03 03:00:06;;;;;;;8.77;4.50;;;6.00;99.90;;;;;;5074140;28;20439;-65
2021/04/03 03:02:33;;;;;;;12.77;4.47;;;6.00;99.90;;;;;;5075709;28;20399;-65
2021/04/03 03:04:59;;;;;;;13.50;5.00;;;6.00;99.90;;;;;;5075668;28;20402;-65
2021/04/03 03:07:27;;;;;;;14.97;4.00;;;6.00;99.90;;;;;;5075406;28;20401;-65
2021/04/03 03:09:53;;;;;;;13.70;4.60;;;6.00;99.90;;;;;;5075336;28;20437;-65
2021/04/03 03:12:21;;;;;;;11.50;4.70;;;6.00;99.90;;;;;;5075255;28;20409;-64
2021/04/03 03:14:48;;;;;;;13.60;4.23;;;6.00;99.90;;;;;;5075853;28;20853;-65
2021/04/03 03:17:15;;;;;;;14.93;4.27;;;6.00;99.90;;;;;;5075099;28;20413;-65
2021/04/03 03:19:41;;;;;;;12.57;4.63;;;6.00;99.90;;;;;;5075413;28;20446;-65
2021/04/03 03:22:08;;;;;;;9.10;4.07;;;6.00;99.90;;;;;;5075059;28;20565;-65
2021/04/03 03:24:34;;;;;;;10.30;3.70;;;6.00;99.90;;;;;;5075139;28;20194;-65
2021/04/03 03:27:01;;;;;;;12.07;3.80;;;6.00;99.90;;;;;;5075074;28;20447;-65
2021/04/03 03:29:30;;;;;;;13.73;4.23;;;6.00;99.90;;;;;;5074991;28;20489;-65
2021/04/03 03:31:55;;;;;;;16.07;4.83;;;6.00;99.90;;;;;;5075570;28;20417;-65
2021/04/03 03:34:22;;;;;;;12.93;4.20;;;6.00;99.90;;;;;;5075078;28;20765;-65
2021/04/03 03:36:48;;;;;;;13.50;4.40;;;6.00;99.90;;;;;;5075063;28;20199;-65
2021/04/03 03:39:14;;;;;;;12.73;4.00;;;6.00;99.90;;;;;;5073554;28;20554;-65
2021/04/03 03:41:40;;;;;;;17.50;4.30;;;6.00;99.90;;;;;;5074758;28;20391;-65
2021/04/03 03:44:07;;;;;;;21.17;4.80;;;6.00;99.90;;;;;;5074691;28;20499;-65
2021/04/03 03:46:33;;;;;;;8.90;4.10;;;6.00;99.90;;;;;;5074687;28;20435;-65
2021/04/03 03:49:00;;;;;;;18.50;4.83;;;5.90;99.90;;;;;;5084086;28;20448;-65
2021/04/03 03:51:26;;;;;;;17.20;4.50;;;5.90;99.90;;;;;;5095161;28;20413;-65
2021/04/03 03:53:51;;;;;;;11.60;3.57;;;5.90;99.90;;;;;;5094655;28;20402;-65
2021/04/03 03:56:17;;;;;;;9.47;4.00;;;5.90;99.90;;;;;;5094704;28;20525;-65
2021/04/03 03:58:44;;;;;;;14.60;4.90;;;5.90;99.90;;;;;;5094526;28;20608;-65
2021/04/03 04:01:10;;;;;;;14.20;4.40;;;5.90;99.90;;;;;;5094853;28;20405;-65
2021/04/03 04:03:36;;;;;;;17.93;5.70;;;5.90;99.90;;;;;;5093821;28;20396;-65
2021/04/03 04:06:02;;;;;;;15.63;4.87;;;5.90;99.90;;;;;;5093639;28;20433;-65
2021/04/03 04:08:28;;;;;;;16.43;5.50;;;5.90;99.90;;;;;;5094364;28;20159;-65
2021/04/03 04:10:54;;;;;;;16.00;5.00;;;6.00;99.90;;;;;;5094256;28;20503;-65
2021/04/03 04:13:19;;;;;;;15.70;5.33;;;5.90;99.90;;;;;;5094311;28;20172;-65
2021/04/03 04:15:45;;;;;;;24.97;5.57;;;5.90;99.90;;;;;;5095070;28;20235;-65
2021/04/03 04:18:10;;;;;;;16.70;5.80;;;5.90;99.90;;;;;;5094472;28;20169;-65
2021/04/03 04:20:36;;;;;;;21.23;4.90;;;5.90;99.90;;;;;;5094172;28;20214;-65
2021/04/03 04:23:02;;;;;;;21.30;5.30;;;5.90;99.90;;;;;;5093421;28;20163;-65
2021/04/03 04:25:28;;;;;;;15.63;5.30;;;5.90;99.90;;;;;;5092854;28;20160;-65
2021/04/03 04:27:54;;;;;;;17.30;5.00;;;5.90;99.90;;;;;;5094063;28;20401;-65
2021/04/03 04:30:20;;;;;;;17.40;5.13;;;5.90;99.90;;;;;;5094453;28;20172;-65
2021/04/03 04:32:46;;;;;;;16.17;6.00;;;5.90;99.90;;;;;;5094244;28;20522;-65
2021/04/03 04:35:13;;;;;;;15.63;5.03;;;5.90;99.90;;;;;;5093903;28;20411;-65
2021/04/03 04:37:39;;;;;;;11.80;5.43;;;5.90;99.90;;;;;;5092707;28;20202;-65
2021/04/03 04:40:07;;;;;;;15.03;4.27;;;5.90;99.90;;;;;;5092789;28;20470;-65
2021/04/03 04:42:32;;;;;;;19.53;5.50;;;5.90;99.90;;;;;;5093864;28;20417;-65
2021/04/03 04:44:58;;;;;;;13.10;3.90;;;5.90;99.90;;;;;;5093921;28;20441;-66
2021/04/03 04:47:24;;;;;;;15.10;5.10;;;5.90;99.90;;;;;;5088459;28;20218;-65
2021/04/03 04:49:51;;;;;;;12.30;4.50;;;5.90;99.90;;;;;;5073386;28;20885;-65
2021/04/03 04:52:17;;;;;;;13.87;5.00;;;5.90;99.90;;;;;;5073265;28;20888;-65
2021/04/03 04:54:43;;;;;;;13.27;5.10;;;5.80;99.90;;;;;;5073280;28;20403;-65
2021/04/03 04:57:08;;;;;;;12.17;5.27;;;5.80;99.90;;;;;;5073962;28;20418;-65
2021/04/03 04:59:34;;;;;;;15.33;5.43;;;5.80;99.90;;;;;;5073290;28;20545;-65
2021/04/03 05:01:59;;;;;;;21.43;5.67;;;5.80;99.90;;;;;;5073282;28;20161;-66
2021/04/03 05:04:25;;;;;;;18.53;5.43;;;5.80;99.90;;;;;;5073209;28;20159;-64
2021/04/03 05:06:50;;;;;;;14.50;5.10;;;5.80;99.90;;;;;;5073456;28;20586;-66
2021/04/03 05:09:16;;;;;;;13.23;5.80;;;5.80;99.90;;;;;;5073264;28;20300;-66
2021/04/03 05:11:42;;;;;;;14.53;5.07;;;5.80;99.90;;;;;;5073459;28;20168;-66
2021/04/03 05:14:07;;;;;;;14.60;4.63;;;5.80;99.90;;;;;;5073674;28;20233;-66
2021/04/03 05:16:34;;;;;;;16.27;6.13;;;5.80;99.90;;;;;;5073170;28;20156;-66
2021/04/03 05:18:59;;;;;;;13.77;5.60;;;5.80;99.90;;;;;;5073167;28;20164;-66
2021/04/03 05:21:25;;;;;;;15.57;5.80;;;5.80;99.90;;;;;;5073081;28;20440;-66
2021/04/03 05:23:51;;;;;;;22.33;6.27;;;5.80;99.90;;;;;;5073243;28;20159;-66
2021/04/03 05:26:16;;;;;;;17.60;6.43;;;5.80;99.90;;;;;;5073210;28;20267;-66
2021/04/03 05:28:44;;;;;;;18.17;4.70;;;5.80;99.90;;;;;;5073061;28;20387;-66
2021/04/03 05:31:10;;;;;;;20.70;6.30;;;5.80;99.90;;;;;;5073616;28;20209;-66
2021/04/03 05:33:35;;;;;;;16.53;5.10;;;5.80;99.90;;;;;;5073026;28;20421;-66
2021/04/03 05:36:01;;;;;;;15.23;5.80;;;5.80;99.90;;;;;;5073223;28;20166;-66
2021/04/03 05:38:26;;;;;;;20.00;5.83;;;5.80;99.90;;;;;;5073390;28;20176;-66
2021/04/03 05:40:53;;;;;;;14.00;5.60;;;5.70;99.90;;;;;;5073147;28;20537;-66
2021/04/03 05:43:19;;;;;;;18.67;5.70;;;5.70;99.90;;;;;;5073211;28;20202;-66
2021/04/03 05:45:49;;;;;;;17.83;5.50;;;5.60;99.90;;;;;;5072853;28;20920;-66
2021/04/03 05:48:14;;;;;;;16.67;6.20;;;5.60;99.90;;;;;;5073388;28;20917;-66
2021/04/03 05:50:41;;;;;;;16.90;6.87;;;5.60;99.90;;;;;;5072990;28;20389;-66
2021/04/03 05:53:07;;;;;;;15.87;6.13;;;5.50;99.90;;;;;;5073059;28;20163;-66
2021/04/03 05:55:33;;;;;;;17.57;6.30;;;5.50;99.90;;;;;;5072952;28;20386;-66
2021/04/03 05:57:58;;;;;;;16.60;5.63;;;5.50;99.90;;;;;;5072816;28;20160;-66
2021/04/03 06:00:24;;;;;;;15.73;4.60;;;5.60;99.90;;;;;;5072943;28;20189;-66
2021/04/03 06:02:51;;;;;;;18.80;6.03;;;5.60;99.90;;;;;;5072702;28;20586;-66
2021/04/03 06:05:17;;;;;;;15.30;5.20;;;5.70;99.90;;;;;;5073571;28;20539;-66
2021/04/03 06:07:43;;;;;;;20.20;6.50;;;5.80;99.90;;;;;;5072598;28;20440;-66
2021/04/03 06:10:10;;;;;;;20.03;6.90;;;5.80;99.90;;;;;;5072683;28;20394;-66
2021/04/03 06:12:41;;;;;;;16.07;7.00;;;5.70;99.90;;;;;;5072638;28;20161;-66
2021/04/03 06:15:11;;;;;;;21.17;7.10;;;5.70;99.90;;;;;;5071325;28;20394;-66
2021/04/03 06:17:36;;;;;;;14.73;6.93;;;5.70;99.90;;;;;;5071445;28;20424;-66
2021/04/03 06:20:03;;;;;;;17.87;6.23;;;5.70;99.90;;;;;;5072453;28;20443;-66
2021/04/03 06:22:41;;;;;;;16.70;8.00;;;5.70;99.90;;;;;;5073189;28;20183;-66
2021/04/03 06:25:06;;;;;;;19.43;8.10;;;5.70;99.90;;;;;;5072486;28;20394;-66
2021/04/03 06:27:32;;;;;;;10.80;6.10;;;5.70;99.90;;;;;;5075502;28;20386;-66
2021/04/03 06:29:58;;;;;;;24.27;7.97;;;5.70;99.90;;;;;;5076243;28;20643;-66
2021/04/03 06:32:29;;;;;;;16.80;7.47;;;5.70;99.90;;;;;;5076443;28;20176;-65
2021/04/03 06:34:56;;;;;;;16.60;6.70;;;5.70;99.90;;;;;;5076125;28;20763;-64
2021/04/03 06:37:38;;;;;;;18.60;6.07;;;5.70;99.90;;;;;;5076399;28;20405;-64
2021/04/03 06:42:45;;;;;;;21.10;7.33;;;5.80;99.90;;;;;;5131484;27;20508;-65
2021/04/03 06:48:09;;;;;;;16.47;5.70;;;5.80;99.90;;;;;;5131436;27;20511;-65
2021/04/03 06:50:41;;;;;;;17.30;6.00;;;5.90;99.90;;;;;;5130579;28;20410;-65
2021/04/03 06:55:45;;;;;;;25.47;6.70;;;5.90;99.90;;;;;;5124065;27;20520;-66
2021/04/03 06:58:12;;;;;;;19.70;6.23;;;6.00;99.90;;;;;;5109891;28;20779;-66
2021/04/03 07:00:39;;;;;;;20.33;7.40;;;6.00;99.90;;;;;;5110906;28;20449;-66
2021/04/03 07:05:45;;;;;;;18.00;6.57;;;6.00;99.90;;;;;;5070840;28;20566;-65
2021/04/03 07:08:11;;;;;;;15.77;5.73;;;6.10;99.90;;;;;;5070393;28;20422;-65
2021/04/03 07:10:39;;;;;;;24.70;7.20;;;6.10;99.90;;;;;;5070261;28;20887;-65
2021/04/03 07:13:06;;;;;;;18.10;6.30;;;6.20;99.90;;;;;;5059978;28;20188;-65
2021/04/03 07:15:32;;;;;;;18.63;6.27;;;6.30;99.90;;;;;;5050107;28;20407;-65
2021/04/03 07:17:58;;;;;;;15.03;6.50;;;6.50;99.90;;;;;;5050444;28;20427;-65
2021/04/03 07:20:30;;;;;;;12.97;5.80;;;6.70;99.90;;;;;;5049140;28;20168;-65
2021/04/03 07:23:02;;;;;;;18.93;6.77;;;7.00;99.90;;;;;;5050098;28;20392;-65
2021/04/03 07:25:34;;;;;;;18.77;5.27;;;7.30;99.90;;;;;;5049002;28;20443;-64
2021/04/03 07:27:59;;;;;;;21.10;6.33;;;7.50;99.90;;;;;;5048959;28;20392;-64
2021/04/03 07:30:44;;;;;;;17.43;6.50;;;7.70;99.90;;;;;;5051064;28;20460;-64
2021/04/03 07:33:18;;;;;;;24.03;7.90;;;7.80;99.90;;;;;;5048868;28;20167;-64
2021/04/03 07:36:02;;;;;;;20.47;6.67;;;7.80;99.90;;;;;;5050075;28;20412;-65
2021/04/03 07:41:16;;;;;;;17.27;6.77;;;7.80;99.90;;;;;;5110936;27;21047;-66
2021/04/03 07:43:44;;;;;;;20.60;9.20;;;7.90;99.90;;;;;;5110953;28;20436;-66
2021/04/03 07:53:59;;;;;;;22.27;6.97;;;8.00;99.90;;;;;;5131607;27;20506;-67
2021/04/03 07:56:27;;;;;;;15.53;5.87;;;8.30;99.90;;;;;;5130185;28;20399;-66
2021/04/03 07:58:55;;;;;;;18.40;6.60;;;8.50;99.90;;;;;;5131312;28;20410;-64
2021/04/03 08:01:23;;;;;;;13.43;5.17;;;8.50;99.90;;;;;;5131468;28;20385;-65
2021/04/03 08:04:05;;;;;;;15.87;5.67;;;8.60;99.90;;;;;;5122986;28;20434;-64
2021/04/03 08:06:33;;;;;;;24.17;6.40;;;8.60;99.90;;;;;;5109682;28;20944;-64
2021/04/03 08:09:02;;;;;;;16.17;5.80;;;8.80;99.90;;;;;;5110808;28;20397;-64
2021/04/03 08:11:28;;;;;;;17.57;6.20;;;8.90;99.90;;;;;;5110595;28;20399;-65
2021/04/03 08:13:56;;;;;;;13.87;5.63;;;9.10;99.90;;;;;;5109540;28;20959;-66
2021/04/03 08:16:22;;;;;;;15.83;6.57;;;9.40;99.90;;;;;;5109799;28;20388;-64
2021/04/03 08:18:50;;;;;;;19.30;7.53;;;9.60;99.90;;;;;;5110461;28;20455;-64
2021/04/03 08:21:17;;;;;;;17.30;6.30;;;9.70;99.90;;;;;;5110241;28;20772;-65
2021/04/03 08:23:48;;;;;;;18.90;6.50;;;9.90;99.90;;;;;;5110248;28;20410;-65
2021/04/03 08:26:16;;;;;;;13.60;6.17;;;10.00;99.90;;;;;;5109091;28;20688;-65
2021/04/03 08:28:41;;;;;;;14.30;6.60;;;10.00;99.90;;;;;;5110286;28;20400;-65
2021/04/03 08:31:17;;;;;;;19.80;8.07;;;10.00;99.90;;;;;;5110434;28;20449;-65
2021/04/03 08:33:44;;;;;;;20.70;5.77;;;9.90;99.90;;;;;;5110407;28;20174;-65
2021/04/03 08:36:12;;;;;;;20.50;6.40;;;9.90;99.90;;;;;;5109202;28;20388;-65
2021/04/03 08:38:38;;;;;;;19.90;7.07;;;10.00;99.90;;;;;;5109465;28;20815;-65
2021/04/03 08:41:04;;;;;;;11.00;5.50;;;10.30;99.90;;;;;;5110098;28;20891;-66
2021/04/03 08:43:31;;;;;;;17.00;5.00;;;10.80;99.40;;;;;;5110108;28;20491;-66
2021/04/03 08:46:03;;;;;;;15.57;5.53;;;11.40;97.70;;;;;;5108914;28;20425;-65
2021/04/03 08:48:34;;;;;;;18.40;6.20;;;11.90;95.60;;;;;;5109921;28;20427;-66
2021/04/03 08:50:59;;;;;;;15.37;6.50;;;12.20;93.70;;;;;;5110192;28;20442;-65
2021/04/03 08:53:34;;;;;;;16.27;5.17;;;12.10;92.70;;;;;;5109604;28;20470;-65
2021/04/03 08:56:00;;;;;;;10.93;4.83;;;12.10;92.60;;;;;;5127956;28;20196;-65
2021/04/03 08:58:25;;;;;;;14.87;5.40;;;12.20;92.30;;;;;;5130405;28;20757;-65
2021/04/03 09:00:51;;;;;;;17.00;5.13;;;12.20;90.80;;;;;;5130268;28;20614;-65
2021/04/03 09:03:16;;;;;;;15.33;5.13;;;12.30;90.30;;;;;;5128498;28;20160;-65
2021/04/03 09:05:47;;;;;;;13.53;4.90;;;12.40;87.90;;;;;;5116343;28;20193;-65
2021/04/03 09:08:28;;;;;;;9.30;4.60;;;12.60;86.40;;;;;;5116679;28;20242;-65
2021/04/03 09:10:56;;;;;;;10.53;4.37;;;12.80;84.00;;;;;;5113989;28;20480;-65
2021/04/03 09:13:22;;;;;;;9.70;5.03;;;12.90;81.30;;;;;;5114963;28;20459;-65
2021/04/03 09:15:48;;;;;;;18.17;5.07;;;13.10;80.30;;;;;;5116294;28;20741;-65
2021/04/03 09:18:15;;;;;;;14.17;5.03;;;13.40;81.20;;;;;;5116359;28;20467;-65
2021/04/03 09:20:49;;;;;;;18.23;6.40;;;13.70;79.00;;;;;;5116366;28;20396;-66
2021/04/03 09:23:22;;;;;;;12.40;4.37;;;14.00;78.60;;;;;;5115050;28;20451;-65
2021/04/03 09:25:58;;;;;;;10.37;4.93;;;14.30;75.70;;;;;;5116368;28;20446;-65
2021/04/03 09:28:41;;;;;;;10.47;4.83;;;14.70;73.60;;;;;;5115557;28;20468;-65
2021/04/03 09:31:08;;;;;;;12.30;5.60;;;15.00;71.00;;;;;;5116185;28;20802;-65
2021/04/03 09:33:48;;;;;;;16.67;5.60;;;15.30;69.30;;;;;;5114843;28;20440;-65
2021/04/03 09:36:17;;;;;;;9.60;5.63;;;15.30;67.30;;;;;;5114544;28;20391;-65
2021/04/03 09:38:43;;;;;;;16.03;6.30;;;15.20;66.60;;;;;;5114724;28;20395;-65
2021/04/03 09:41:27;;;;;;;19.40;6.40;;;15.10;66.60;;;;;;5115143;28;20455;-65
2021/04/03 09:43:53;;;;;;;14.17;5.47;;;15.00;66.00;;;;;;5114591;28;20404;-65
2021/04/03 09:46:20;;;;;;;11.20;5.83;;;14.70;65.90;;;;;;5105791;28;20962;-66
2021/04/03 09:48:46;;;;;;;15.77;5.90;;;14.40;66.90;;;;;;5115521;28;20883;-67
2021/04/03 09:51:11;;;;;;;12.80;6.30;;;14.10;68.30;;;;;;5115706;28;20809;-65
2021/04/03 09:53:37;;;;;;;13.83;6.53;;;13.50;69.10;;;;;;5115441;28;20542;-65
2021/04/03 09:56:05;;;;;;;14.60;6.33;;;13.00;70.60;;;;;;5114687;28;20214;-65
2021/04/03 09:58:31;;;;;;;12.30;5.50;;;12.60;72.20;;;;;;5114144;28;20420;-65
2021/04/03 10:00:57;;;;;;;19.87;7.50;;;12.30;74.00;;;;;;5114086;28;20889;-65
2021/04/03 10:03:22;;;;;;;10.83;6.40;;;11.90;75.60;;;;;;5114625;28;20468;-65
2021/04/03 10:05:48;;;;;;;14.60;6.20;;;11.60;78.60;;;;;;5113862;28;20193;-65
2021/04/03 10:08:14;;;;;;;12.30;6.60;;;11.50;79.70;;;;;;5114161;28;20169;-65
2021/04/03 10:10:40;;;;;;;16.93;6.93;;;11.30;80.60;;;;;;5115745;28;20710;-65
2021/04/03 10:13:07;;;;;;;19.93;7.83;;;11.20;82.30;;;;;;5114972;27;20277;-65
2021/04/03 10:15:33;;;;;;;20.63;7.63;;;11.20;84.10;;;;;;5114213;28;20486;-65
2021/04/03 10:17:59;;;;;;;21.73;8.83;;;11.20;84.80;;;;;;5114916;28;20394;-65
2021/04/03 10:20:25;;;;;;;18.70;7.83;;;11.10;86.40;;;;;;5114393;28;20843;-65
2021/04/03 10:22:50;;;;;;;11.63;7.70;;;11.10;86.80;;;;;;5115121;28;20199;-65
2021/04/03 10:25:16;;;;;;;17.70;8.37;;;11.20;87.00;;;;;;5115032;28;20169;-65
2021/04/03 10:27:41;;;;;;;20.40;8.80;;;11.10;88.00;;;;;;5114767;28;20247;-65
2021/04/03 10:30:08;;;;;;;19.57;8.40;;;11.20;89.70;;;;;;5114681;28;20178;-64
2021/04/03 10:32:33;;;;;;;16.90;8.67;;;11.20;90.30;;;;;;5114887;28;20217;-65
2021/04/03 10:34:59;;;;;;;14.77;8.07;;;11.30;90.50;;;;;;5115016;28;20707;-65
2021/04/03 10:37:25;;;;;;;16.13;7.90;;;11.40;90.00;;;;;;5113881;28;20180;-65
2021/04/03 10:39:50;;;;;;;13.50;7.43;;;11.50;89.00;;;;;;5114720;28;20403;-65
2021/04/03 10:42:16;;;;;;;18.47;8.37;;;11.60;87.90;;;;;;5114397;28;20164;-65
2021/04/03 10:44:41;;;;;;;13.90;8.60;;;11.70;88.60;;;;;;5114419;28;20161;-65
2021/04/03 10:47:07;;;;;;;13.23;8.90;;;11.70;89.40;;;;;;5094400;28;20214;-65
2021/04/03 10:49:33;;;;;;;17.30;8.90;;;11.80;90.10;;;;;;5094034;28;20159;-64
2021/04/03 10:51:59;;;;;;;17.27;9.27;;;11.70;89.10;;;;;;5094001;28;20197;-65
2021/04/03 10:54:24;;;;;;;25.50;10.87;;;11.70;89.60;;;;;;5094630;28;20265;-65
2021/04/03 10:56:50;;;;;;;18.53;10.03;;;11.70;89.90;;;;;;5093889;28;20398;-65
2021/04/03 10:59:16;;;;;;;17.03;10.10;;;11.70;90.00;;;;;;5093852;28;20189;-65
2021/04/03 11:01:41;;;;;;;15.07;10.33;;;11.70;90.10;;;;;;5094349;28;20213;-65
2021/04/03 11:04:08;;;;;;;20.97;10.20;;;11.70;89.50;;;;;;5092684;28;20211;-65
2021/04/03 11:06:33;;;;;;;14.57;9.67;;;11.60;88.90;;;;;;5094052;28;20154;-65
2021/04/03 11:08:59;;;;;;;18.17;9.10;;;11.40;89.80;;;;;;5093670;28;20422;-65
2021/04/03 11:11:24;;;;;;;17.17;9.97;;;11.30;90.20;;;;;;5094016;28;20204;-64
2021/04/03 11:13:50;;;;;;;16.63;10.83;;;11.10;90.60;;;;;;5093747;28;20700;-64
2021/04/03 11:16:15;;;;;;;21.07;11.67;;;11.00;91.00;;;;;;5092640;28;20159;-66
2021/04/03 11:18:42;;;;;;;18.00;10.73;;;11.00;91.30;;;;;;5093351;28;20164;-65
2021/04/03 11:21:08;;;;;;;18.17;10.73;;;11.10;91.30;;;;;;5092443;28;20161;-65
2021/04/03 11:23:33;;;;;;;16.83;10.10;;;11.40;91.80;;;;;;5093473;28;20879;-65
2021/04/03 11:25:59;;;;;;;16.23;10.20;;;11.40;91.40;;;;;;5093430;28;20429;-65
2021/04/03 11:28:24;;;;;;;18.10;10.00;;;11.40;90.40;;;;;;5093998;28;20184;-65
2021/04/03 11:30:50;;;;;;;18.33;10.93;;;11.20;90.70;;;;;;5093262;28;20161;-65
2021/04/03 11:33:16;;;;;;;19.03;11.97;;;11.10;91.30;;;;;;5093314;28;20184;-65
2021/04/03 11:35:41;;;;;;;15.77;10.17;;;11.20;91.50;;;;;;5093523;28;20156;-65
2021/04/03 11:38:07;;;;;;;14.30;9.10;;;11.20;91.40;;;;;;5093450;28;20244;-65
2021/04/03 11:40:32;;;;;;;12.87;8.53;;;11.20;91.40;;;;;;5093314;28;20247;-65
2021/04/03 11:42:58;;;;;;;18.47;9.70;;;11.20;91.30;;;;;;5093393;28;20156;-65
2021/04/03 11:45:24;;;;;;;17.27;9.30;;;11.20;91.30;;;;;;5099123;28;20190;-65
2021/04/03 11:47:51;;;;;;;13.00;9.93;;;11.20;90.90;;;;;;5113794;28;20535;-65
2021/04/03 11:50:17;;;;;;;13.93;9.53;;;11.20;91.30;;;;;;5112479;28;20389;-65
2021/04/03 11:52:43;;;;;;;15.70;8.90;;;11.20;91.40;;;;;;5112058;28;20516;-65
2021/04/03 11:55:11;;;;;;;17.47;9.43;;;11.30;91.20;;;;;;5112341;28;20498;-65
2021/04/03 11:57:37;;;;;;;14.00;7.40;;;11.30;90.40;;;;;;5113382;28;20389;-65
2021/04/03 12:00:06;;;;;;;12.33;8.50;;;11.30;88.60;;;;;;5113306;28;20747;-65
2021/04/03 12:02:31;;;;;;;11.23;7.57;;;11.20;89.60;;;;;;5111507;28;20901;-65
2021/04/03 12:04:57;;;;;;;18.77;9.20;;;11.20;90.10;;;;;;5113375;28;20397;-65
2021/04/03 12:07:24;;;;;;;10.20;6.60;;;11.30;90.40;;;;;;5113482;28;20211;-65
2021/04/03 12:09:49;;;;;;;14.20;7.37;;;11.30;88.80;;;;;;5113195;28;20748;-66
2021/04/03 12:12:15;;;;;;;11.20;6.80;;;11.30;87.60;;;;;;5113095;28;20441;-66
2021/04/03 12:14:40;;;;;;;13.37;7.20;;;11.30;87.00;;;;;;5113113;28;20163;-65
2021/04/03 12:17:06;;;;;;;13.60;6.53;;;11.30;87.90;;;;;;5113412;28;20152;-65
2021/04/03 12:19:31;;;;;;;17.80;7.77;;;11.40;87.80;;;;;;5112298;28;20176;-65
2021/04/03 12:21:57;;;;;;;10.40;7.37;;;11.50;88.10;;;;;;5113261;28;20149;-65
2021/04/03 12:24:22;;;;;;;17.37;8.27;;;11.60;87.50;;;;;;5113289;28;20201;-65
2021/04/03 12:26:48;;;;;;;12.20;6.10;;;11.50;86.30;;;;;;5113283;28;20518;-65
2021/04/03 12:29:13;;;;;;;9.90;4.70;;;11.50;83.70;;;;;;5113193;28;20501;-65
2021/04/03 12:31:39;;;;;;;7.33;4.93;;;11.40;79.60;;;;;;5113397;28;20168;-65
2021/04/03 12:34:04;;;;;;;9.67;6.10;;;11.40;79.30;;;;;;5113194;28;20188;-65
2021/04/03 12:36:30;;;;;;;11.37;6.43;;;11.40;80.70;;;;;;5112476;28;20660;-65
2021/04/03 12:38:56;;;;;;;14.43;7.40;;;11.50;82.00;;;;;;5114060;28;20164;-65
2021/04/03 12:41:22;;;;;;;15.90;7.40;;;11.70;82.80;;;;;;5116934;28;20157;-65
2021/04/03 12:43:47;;;;;;;13.00;7.50;;;11.80;81.90;;;;;;5116346;28;20462;-65
2021/04/03 12:46:13;;;;;;;14.47;7.27;;;11.90;82.00;;;;;;5096885;28;20277;-65
2021/04/03 12:48:38;;;;;;;13.03;7.17;;;11.90;80.40;;;;;;5096808;28;20165;-65
2021/04/03 12:51:04;;;;;;;12.53;6.77;;;11.90;78.50;;;;;;5096280;28;20155;-65
2021/04/03 12:53:30;;;;;;;14.47;7.10;;;11.90;79.30;;;;;;5095574;28;20222;-65
2021/04/03 12:55:56;;;;;;;11.43;7.07;;;11.90;79.30;;;;;;5096323;28;20874;-65
2021/04/03 12:58:23;;;;;;;12.10;5.90;;;11.90;77.10;;;;;;5095246;28;20157;-65
2021/04/03 13:00:49;;;;;;;9.80;6.60;;;12.00;75.40;;;;;;5096549;28;20437;-65
2021/04/03 13:03:15;;;;;;;9.63;5.70;;;11.90;75.50;;;;;;5096238;28;20399;-65
2021/04/03 13:05:41;;;;;;;9.27;6.07;;;11.90;75.00;;;;;;5096172;28;20194;-65
2021/04/03 13:08:07;;;;;;;11.20;6.43;;;11.90;74.30;;;;;;5094906;28;20396;-65
2021/04/03 13:10:34;;;;;;;8.50;5.10;;;12.00;74.50;;;;;;5096730;28;20412;-66